createdAt,value
2018-07-05T00:00:11.540Z,7.30
2018-07-05T00:02:50.276Z,6.93
2018-07-05T00:05:28.780Z,7.00
2018-07-05T00:08:07.296Z,6.60
2018-07-05T00:10:45.910Z,6.80
2018-07-05T00:13:24.552Z,6.77
2018-07-05T00:16:03.121Z,7.30
2018-07-05T00:18:41.824Z,6.70
2018-07-05T00:21:20.338Z,7.17
2018-07-05T00:23:58.973Z,7.13
2018-07-05T00:26:37.507Z,6.80
2018-07-05T00:29:15.992Z,6.80
2018-07-05T00:31:54.545Z,7.70
2018-07-05T00:34:33.126Z,7.27
2018-07-05T00:37:11.667Z,6.13
2018-07-05T00:39:50.368Z,6.90
2018-07-05T00:42:29.004Z,8.53
2018-07-05T00:45:07.606Z,6.37
2018-07-05T00:47:46.217Z,6.87
2018-07-05T00:50:24.838Z,7.17
2018-07-05T00:53:03.452Z,7.00
2018-07-05T00:55:42.026Z,8.53
2018-07-05T00:58:20.689Z,8.23
2018-07-05T01:00:59.324Z,8.67
2018-07-05T01:03:37.932Z,8.17
2018-07-05T01:06:20.030Z,7.73
2018-07-05T01:08:58.764Z,8.27
2018-07-05T01:11:37.343Z,8.47
2018-07-05T01:14:29.143Z,7.90
2018-07-05T01:17:07.846Z,7.73
2018-07-05T01:19:46.477Z,7.07
2018-07-05T01:22:25.172Z,7.07
2018-07-05T01:25:03.749Z,7.00
2018-07-05T01:27:42.408Z,7.20
2018-07-05T01:31:23.932Z,7.63
2018-07-05T01:34:02.528Z,7.83
2018-07-05T01:36:41.252Z,7.73
2018-07-05T01:39:19.801Z,8.67
2018-07-05T01:41:58.284Z,9.60
2018-07-05T01:44:36.795Z,8.03
2018-07-05T01:47:15.322Z,7.80
2018-07-05T01:49:54.055Z,7.73
2018-07-05T01:52:37.176Z,7.87
2018-07-05T01:55:15.728Z,7.23
2018-07-05T01:57:54.393Z,9.03
2018-07-05T02:00:33.048Z,7.80
2018-07-05T02:03:11.627Z,7.80
2018-07-05T02:05:50.312Z,7.87
2018-07-05T02:08:28.856Z,7.60
2018-07-05T02:11:07.357Z,7.53
2018-07-05T02:13:45.922Z,7.43
2018-07-05T02:16:24.528Z,7.30
2018-07-05T02:19:03.271Z,7.93
2018-07-05T02:21:41.753Z,7.73
2018-07-05T02:24:20.374Z,6.80
2018-07-05T02:26:59.104Z,7.57
2018-07-05T02:29:37.589Z,7.23
2018-07-05T02:32:16.298Z,7.97
2018-07-05T02:34:54.903Z,8.70
2018-07-05T02:37:39.245Z,7.20
2018-07-05T02:40:17.735Z,7.43
2018-07-05T02:42:56.367Z,8.17
2018-07-05T02:45:34.947Z,9.10
2018-07-05T02:48:13.553Z,7.47
2018-07-05T02:50:52.317Z,7.83
2018-07-05T02:53:30.823Z,7.43
2018-07-05T02:56:09.441Z,7.57
2018-07-05T02:58:48.149Z,9.53
2018-07-05T03:01:26.637Z,8.17
2018-07-05T03:04:05.285Z,7.40
2018-07-05T03:06:43.913Z,8.00
2018-07-05T03:09:22.565Z,8.00
2018-07-05T03:12:01.170Z,7.20
2018-07-05T03:14:39.840Z,9.93
2018-07-05T03:17:18.356Z,7.77
2018-07-05T03:19:57.037Z,7.73
2018-07-05T03:22:35.621Z,8.43
2018-07-05T03:25:14.268Z,8.60
2018-07-05T03:27:52.879Z,8.73
2018-07-05T03:30:31.326Z,9.60
2018-07-05T03:33:09.983Z,8.93
2018-07-05T03:35:48.480Z,8.77
2018-07-05T03:38:27.116Z,9.00
2018-07-05T03:41:05.717Z,10.40
2018-07-05T03:43:44.339Z,10.43
2018-07-05T03:46:22.817Z,10.30
2018-07-05T03:49:01.526Z,9.07
2018-07-05T03:51:40.199Z,8.93
2018-07-05T03:54:18.832Z,8.70
2018-07-05T03:56:57.490Z,10.80
2018-07-05T03:59:36.309Z,9.93
2018-07-05T04:02:09.393Z,8.23
2018-07-05T04:04:47.929Z,9.03
2018-07-05T04:07:26.423Z,10.47
2018-07-05T04:10:05.053Z,10.47
2018-07-05T04:12:43.492Z,10.70
2018-07-05T04:15:22.117Z,9.27
2018-07-05T04:18:00.694Z,9.30
2018-07-05T04:20:39.160Z,9.03
2018-07-05T04:23:17.831Z,10.30
2018-07-05T04:25:56.372Z,9.70
2018-07-05T04:28:34.935Z,10.07
2018-07-05T04:31:13.576Z,10.87
2018-07-05T04:33:52.104Z,11.20
2018-07-05T04:36:30.746Z,11.83
2018-07-05T04:39:03.597Z,11.37
2018-07-05T04:41:42.122Z,12.17
2018-07-05T04:44:20.616Z,12.43
2018-07-05T04:46:59.361Z,13.93
2018-07-05T04:49:37.981Z,11.00
2018-07-05T04:52:16.650Z,10.60
2018-07-05T04:54:55.179Z,11.00
2018-07-05T04:57:33.787Z,10.43
2018-07-05T05:00:12.359Z,10.80
2018-07-05T05:02:50.939Z,9.77
2018-07-05T05:05:29.596Z,11.83
2018-07-05T05:08:08.193Z,11.23
2018-07-05T05:10:46.803Z,11.73
2018-07-05T05:13:25.444Z,14.30
2018-07-05T05:16:04.098Z,12.77
2018-07-05T05:18:42.648Z,11.50
2018-07-05T05:21:21.155Z,12.73
2018-07-05T05:23:59.604Z,12.80
2018-07-05T05:26:38.115Z,12.10
2018-07-05T05:29:16.614Z,12.67
2018-07-05T05:31:55.236Z,12.93
2018-07-05T05:34:33.756Z,12.43
2018-07-05T05:37:12.278Z,12.43
2018-07-05T05:39:50.930Z,15.33
2018-07-05T05:42:29.458Z,12.70
2018-07-05T05:45:08.124Z,12.50
2018-07-05T05:47:46.647Z,13.57
2018-07-05T06:07:09.564Z,11.70
2018-07-05T06:09:48.311Z,10.60
2018-07-05T06:12:26.849Z,9.70
2018-07-05T06:15:05.377Z,9.77
2018-07-05T06:17:44.048Z,11.80
2018-07-05T06:20:16.946Z,10.97
2018-07-05T06:22:56.476Z,10.80
2018-07-05T06:25:35.673Z,10.00
2018-07-05T06:28:14.357Z,10.73
2018-07-05T06:30:53.952Z,11.50
2018-07-05T06:33:26.728Z,12.47
2018-07-05T06:36:05.290Z,11.40
2018-07-05T06:38:44.068Z,12.43
2018-07-05T06:41:24.101Z,14.50
2018-07-05T06:44:02.888Z,12.53
2018-07-05T06:46:41.534Z,12.07
2018-07-05T06:49:21.380Z,12.33
2018-07-05T06:52:00.146Z,11.87
2018-07-05T06:54:39.945Z,11.77
2018-07-05T06:57:19.157Z,12.97
2018-07-05T06:59:58.768Z,10.87
2018-07-05T07:02:37.922Z,11.10
2018-07-05T07:05:16.472Z,11.67
2018-07-05T07:07:54.994Z,11.33
2018-07-05T07:10:27.895Z,14.43
2018-07-05T07:13:06.649Z,12.87
2018-07-05T07:15:45.308Z,12.13
2018-07-05T07:18:23.944Z,10.73
2018-07-05T07:21:02.449Z,14.17
2018-07-05T07:23:40.949Z,11.33
2018-07-05T07:26:20.505Z,10.10
2018-07-05T07:28:53.493Z,8.90
2018-07-05T07:31:32.638Z,8.80
2018-07-05T07:34:11.334Z,8.30
2018-07-05T07:36:44.199Z,8.47
2018-07-05T07:39:22.856Z,8.13
2018-07-05T07:41:50.279Z,7.60
2018-07-05T07:44:18.392Z,7.90
2018-07-05T07:46:45.553Z,7.33
2018-07-05T07:49:12.820Z,7.30
2018-07-05T07:51:39.153Z,7.40
2018-07-05T07:54:05.425Z,7.70
2018-07-05T07:56:31.755Z,6.60
2018-07-05T07:58:59.434Z,6.83
2018-07-05T08:01:25.658Z,7.17
2018-07-05T08:03:52.064Z,6.83
2018-07-05T08:06:18.358Z,7.07
2018-07-05T08:08:44.591Z,7.90
2018-07-05T08:11:10.883Z,6.60
2018-07-05T08:13:37.136Z,6.60
2018-07-05T08:16:03.464Z,7.00
2018-07-05T08:18:30.652Z,6.80
2018-07-05T08:20:56.877Z,6.67
2018-07-05T08:23:23.120Z,7.70
2018-07-05T08:25:49.416Z,8.10
2018-07-05T08:28:16.184Z,7.37
2018-07-05T08:30:42.436Z,6.43
2018-07-05T08:33:08.671Z,7.03
2018-07-05T08:35:34.979Z,6.90
2018-07-05T08:38:01.300Z,6.93
2018-07-05T08:40:28.015Z,6.90
2018-07-05T08:42:54.222Z,7.47
2018-07-05T08:45:20.576Z,7.40
2018-07-05T08:47:47.138Z,7.03
2018-07-05T08:50:13.391Z,7.20
2018-07-05T08:52:39.620Z,7.23
2018-07-05T08:55:06.028Z,7.30
2018-07-05T08:57:32.265Z,7.23
2018-07-05T08:59:58.977Z,6.70
2018-07-05T09:02:25.243Z,6.00
2018-07-05T09:04:52.046Z,7.00
2018-07-05T09:07:18.329Z,6.50
2018-07-05T09:09:44.546Z,6.80
2018-07-05T09:12:11.816Z,6.37
2018-07-05T09:14:38.913Z,6.17
2018-07-05T09:17:06.130Z,6.50
2018-07-05T09:19:32.700Z,7.70
2018-07-05T09:21:59.474Z,6.80
2018-07-05T09:24:26.532Z,6.27
2018-07-05T09:26:52.929Z,6.93
2018-07-05T09:29:19.658Z,6.23
2018-07-05T09:31:45.984Z,7.00
2018-07-05T09:34:12.251Z,6.60
2018-07-05T09:36:39.278Z,5.97
2018-07-05T09:39:07.225Z,7.40
2018-07-05T09:41:35.245Z,8.80
2018-07-05T09:44:01.484Z,7.67
2018-07-05T09:46:27.838Z,7.13
2018-07-05T09:48:54.048Z,7.20
2018-07-05T09:51:20.280Z,7.13
2018-07-05T09:53:46.467Z,7.27
2018-07-05T09:56:12.720Z,7.60
2018-07-05T09:58:39.154Z,7.67
2018-07-05T10:01:09.200Z,7.37
2018-07-05T10:03:36.763Z,7.27
2018-07-05T10:06:03.550Z,7.20
2018-07-05T10:08:31.547Z,7.20
2018-07-05T10:10:57.853Z,8.90
2018-07-05T10:13:24.297Z,7.10
2018-07-05T10:15:50.434Z,7.40
2018-07-05T10:18:16.711Z,6.57
2018-07-05T10:20:43.092Z,7.07
2018-07-05T10:23:09.968Z,6.53
2018-07-05T10:25:36.761Z,6.20
2018-07-05T10:28:03.047Z,6.30
2018-07-05T10:30:41.764Z,6.37
2018-07-05T10:33:20.369Z,6.87
2018-07-05T10:35:47.065Z,6.50
2018-07-05T10:38:13.356Z,5.50
2018-07-05T10:40:52.034Z,6.13
2018-07-05T10:43:30.871Z,5.90
2018-07-05T10:46:09.395Z,5.53
2018-07-05T10:48:48.035Z,6.43
2018-07-05T10:51:26.489Z,6.00
2018-07-05T10:54:05.149Z,6.00
2018-07-05T10:56:44.150Z,6.43
2018-07-05T10:59:24.104Z,5.70
2018-07-05T11:02:02.656Z,5.73
2018-07-05T11:04:41.184Z,5.80
2018-07-05T11:07:20.594Z,6.03
2018-07-05T11:09:59.310Z,5.80
2018-07-05T11:12:38.092Z,5.70
2018-07-05T11:15:16.924Z,5.80
2018-07-05T11:17:55.566Z,6.00
2018-07-05T11:20:34.190Z,5.77
2018-07-05T11:23:13.921Z,6.73
2018-07-05T11:25:52.609Z,6.37
2018-07-05T11:28:31.223Z,6.27
2018-07-05T11:31:09.776Z,5.70
2018-07-05T11:33:43.378Z,5.90
2018-07-05T11:36:16.183Z,6.33
2018-07-05T11:38:54.826Z,6.67
2018-07-05T11:41:33.815Z,6.07
2018-07-05T11:44:12.407Z,6.80
2018-07-05T11:46:51.165Z,7.73
2018-07-05T11:49:30.076Z,7.00
2018-07-05T11:52:09.184Z,7.67
2018-07-05T11:54:48.349Z,6.77
2018-07-05T11:57:27.864Z,7.43
2018-07-05T12:00:06.577Z,6.60
2018-07-05T12:02:45.287Z,7.40
2018-07-05T12:05:24.585Z,7.47
2018-07-05T12:08:04.353Z,7.57
2018-07-05T12:10:43.092Z,7.60
2018-07-05T12:13:22.526Z,8.07
2018-07-05T12:16:02.920Z,8.57
2018-07-05T12:18:41.646Z,9.03
2018-07-05T12:21:20.509Z,7.87
2018-07-05T12:23:59.546Z,7.93
2018-07-05T12:26:38.225Z,7.60
2018-07-05T12:29:19.286Z,9.30
2018-07-05T12:31:58.065Z,7.80
2018-07-05T12:34:36.792Z,6.40
2018-07-05T12:37:15.476Z,5.97
2018-07-05T12:39:55.616Z,5.80
2018-07-05T12:42:34.757Z,5.50
2018-07-05T12:45:13.715Z,5.23
2018-07-05T12:47:53.160Z,5.40
2018-07-05T12:50:32.549Z,5.20
2018-07-05T12:53:12.002Z,5.50
2018-07-05T12:55:52.732Z,5.47
2018-07-05T12:58:32.307Z,5.27
2018-07-05T13:01:11.196Z,5.23
2018-07-05T13:03:49.710Z,5.60
2018-07-05T13:06:28.227Z,5.07
2018-07-05T13:09:08.009Z,5.20
2018-07-05T13:11:46.598Z,4.70
2018-07-05T13:14:20.397Z,5.20
2018-07-05T13:16:54.158Z,5.30
2018-07-05T13:19:32.620Z,5.07
2018-07-05T13:22:11.308Z,4.43
2018-07-05T13:24:51.259Z,5.00
2018-07-05T13:27:30.780Z,4.50
2018-07-05T13:30:10.123Z,4.03
2018-07-05T13:32:48.768Z,4.60
2018-07-05T13:35:27.743Z,4.50
2018-07-05T13:38:06.723Z,4.23
2018-07-05T13:40:45.572Z,4.63
2018-07-05T13:43:25.129Z,4.93
2018-07-05T13:46:04.415Z,4.60
2018-07-05T13:48:43.377Z,4.17
2018-07-05T13:51:23.746Z,4.00
2018-07-05T13:54:03.462Z,4.50
2018-07-05T13:56:42.097Z,4.47
2018-07-05T13:59:23.251Z,4.43
2018-07-05T14:02:03.524Z,4.47
2018-07-05T14:04:43.053Z,4.63
2018-07-05T14:07:22.085Z,4.50
2018-07-05T14:28:28.726Z,4.40
2018-07-05T14:31:08.084Z,5.60
2018-07-05T14:33:46.577Z,4.90
2018-07-05T14:36:26.258Z,4.97
2018-07-05T14:39:05.736Z,5.23
2018-07-05T14:41:44.313Z,5.83
2018-07-05T14:44:22.848Z,5.20
2018-07-05T14:47:01.609Z,5.97
2018-07-05T14:49:40.263Z,5.43
2018-07-05T14:52:19.232Z,6.57
2018-07-05T14:55:01.885Z,6.87
2018-07-05T14:57:40.638Z,6.00
2018-07-05T15:00:19.211Z,6.50
2018-07-05T15:02:57.922Z,6.20
2018-07-05T15:05:36.634Z,5.80
2018-07-05T15:08:16.087Z,6.03
2018-07-05T15:10:55.241Z,5.87
2018-07-05T15:13:35.685Z,6.07
2018-07-05T15:16:14.881Z,6.23
2018-07-05T15:18:48.007Z,6.17
2018-07-05T15:21:26.775Z,5.20
2018-07-05T15:24:06.515Z,5.10
2018-07-05T15:26:45.279Z,5.53
2018-07-05T15:29:24.101Z,6.43
2018-07-05T15:32:03.176Z,6.60
2018-07-05T15:34:41.689Z,6.27
2018-07-05T15:37:20.460Z,5.80
2018-07-05T15:39:53.389Z,5.97
2018-07-05T15:42:32.328Z,6.10
2018-07-05T15:45:11.013Z,6.40
2018-07-05T15:47:50.133Z,6.33
2018-07-05T15:50:28.638Z,6.50
2018-07-05T15:53:08.007Z,6.83
2018-07-05T15:55:47.472Z,6.30
2018-07-05T15:58:26.251Z,6.10
2018-07-05T16:01:04.891Z,6.53
2018-07-05T16:03:43.482Z,7.07
2018-07-05T16:06:22.466Z,6.20
2018-07-05T16:09:02.264Z,6.33
2018-07-05T16:11:41.086Z,6.23
2018-07-05T16:14:20.322Z,6.87
2018-07-05T16:16:58.944Z,6.33
2018-07-05T16:19:37.680Z,6.50
2018-07-05T16:22:17.069Z,6.20
2018-07-05T16:24:55.716Z,6.20
2018-07-05T16:27:34.322Z,5.53
2018-07-05T16:30:12.977Z,5.83
2018-07-05T16:32:51.662Z,5.60
2018-07-05T16:35:30.199Z,5.57
2018-07-05T16:38:08.807Z,6.20
2018-07-05T16:40:47.908Z,6.13
2018-07-05T16:43:26.463Z,6.47
2018-07-05T16:46:04.986Z,7.70
2018-07-05T16:48:43.551Z,7.07
2018-07-05T16:51:22.284Z,9.20
2018-07-05T16:54:00.908Z,13.80
2018-07-05T16:56:39.559Z,10.40
2018-07-05T16:59:18.084Z,43.27
2018-07-05T17:01:57.333Z,9.50
2018-07-05T17:21:19.946Z,9.63
2018-07-05T17:23:58.645Z,10.97
2018-07-05T17:26:37.148Z,10.10
2018-07-05T17:29:15.867Z,10.77
2018-07-05T17:31:54.429Z,10.80
2018-07-05T17:34:32.980Z,10.03
2018-07-05T17:37:11.485Z,11.17
2018-07-05T17:39:49.975Z,11.53
2018-07-05T17:42:29.217Z,10.80
2018-07-05T17:45:08.521Z,12.00
2018-07-05T17:47:47.187Z,11.87
2018-07-05T17:50:25.687Z,11.00
2018-07-05T17:53:04.248Z,10.90
2018-07-05T17:55:44.097Z,11.20
2018-07-05T17:58:22.710Z,10.53
2018-07-05T18:00:55.566Z,10.90
2018-07-05T18:03:34.264Z,11.23
2018-07-05T18:06:12.912Z,10.20
2018-07-05T18:08:51.654Z,11.47
2018-07-05T18:11:30.194Z,11.23
2018-07-05T18:14:08.826Z,9.43
2018-07-05T18:16:48.248Z,10.43
2018-07-05T18:19:26.885Z,11.00
2018-07-05T18:22:06.360Z,10.37
2018-07-05T18:24:45.007Z,11.40
2018-07-05T18:27:23.752Z,10.10
2018-07-05T18:30:02.665Z,11.10
2018-07-05T18:32:41.252Z,9.97
2018-07-05T18:35:19.915Z,9.77
2018-07-05T18:37:58.544Z,9.80
2018-07-05T18:40:32.084Z,10.33
2018-07-05T18:43:10.808Z,10.60
2018-07-05T18:45:49.473Z,37.20
2018-07-05T18:48:29.220Z,10.90
2018-07-05T18:51:09.806Z,9.63
2018-07-05T18:53:48.504Z,9.50
2018-07-05T18:56:27.928Z,8.90
2018-07-05T18:59:06.865Z,10.53
2018-07-05T19:01:48.026Z,10.67
2018-07-05T19:04:26.899Z,9.50
2018-07-05T19:07:06.019Z,10.93
2018-07-05T19:09:45.614Z,7.50
2018-07-05T19:12:25.930Z,8.97
2018-07-05T19:15:05.032Z,7.90
2018-07-05T19:17:43.804Z,8.57
2018-07-05T19:20:22.366Z,9.30
2018-07-05T19:23:01.272Z,9.43
2018-07-05T19:25:40.074Z,10.20
2018-07-05T19:28:19.502Z,9.80
2018-07-05T19:30:54.404Z,9.33
2018-07-05T19:33:34.195Z,9.10
2018-07-05T19:36:13.585Z,8.93
2018-07-05T19:38:52.290Z,9.03
2018-07-05T19:41:30.950Z,9.73
2018-07-05T19:44:10.490Z,9.30
2018-07-05T19:46:49.091Z,9.50
2018-07-05T19:49:27.907Z,9.67
2018-07-05T19:52:10.178Z,9.03
2018-07-05T19:54:48.742Z,10.57
2018-07-05T19:57:28.264Z,8.67
2018-07-05T20:00:06.938Z,7.70
2018-07-05T20:02:46.652Z,8.90
2018-07-05T20:05:25.705Z,8.60
2018-07-05T20:08:05.572Z,8.70
2018-07-05T20:10:47.477Z,7.90
2018-07-05T20:13:26.977Z,8.13
2018-07-05T20:16:05.639Z,8.27
2018-07-05T20:18:44.597Z,8.63
2018-07-05T20:21:25.721Z,8.27
2018-07-05T20:24:04.458Z,8.90
2018-07-05T20:26:43.242Z,8.77
2018-07-05T20:29:24.117Z,7.70
2018-07-05T20:32:03.198Z,9.43
2018-07-05T20:34:42.824Z,9.80
2018-07-05T20:37:21.602Z,9.77
2018-07-05T20:40:00.305Z,9.27
2018-07-05T20:42:34.159Z,9.07
2018-07-05T20:45:12.913Z,9.03
2018-07-05T20:47:46.078Z,9.97
2018-07-05T20:50:26.664Z,9.27
2018-07-05T20:53:08.124Z,8.57
2018-07-05T20:55:48.101Z,8.53
2018-07-05T20:58:31.049Z,9.30
2018-07-05T21:01:09.893Z,8.77
2018-07-05T21:03:49.778Z,8.93
2018-07-05T21:06:29.055Z,9.30
2018-07-05T21:09:08.668Z,9.27
2018-07-05T21:11:48.790Z,11.73
2018-07-05T21:14:27.989Z,10.87
2018-07-05T21:17:06.542Z,9.57
2018-07-05T21:19:45.903Z,10.67
2018-07-05T21:22:24.655Z,10.30
2018-07-05T21:25:03.379Z,11.77
2018-07-05T21:27:42.531Z,14.03
2018-07-05T21:30:21.169Z,12.63
2018-07-05T21:33:00.371Z,11.60
2018-07-05T21:35:40.470Z,11.50
2018-07-05T21:38:19.317Z,10.80
2018-07-05T21:40:57.977Z,10.63
2018-07-05T21:43:37.151Z,10.70
2018-07-05T21:46:15.670Z,12.73
2018-07-05T21:48:54.892Z,13.50
2018-07-05T21:51:33.410Z,12.73
2018-07-05T21:54:06.268Z,11.90
2018-07-05T21:56:44.709Z,11.37
2018-07-05T21:59:23.283Z,11.07
2018-07-05T22:02:01.975Z,11.80
2018-07-05T22:04:40.416Z,11.00
2018-07-05T22:07:19.110Z,11.50
2018-07-05T22:09:57.576Z,12.60
2018-07-05T22:12:36.145Z,13.53
2018-07-05T22:15:14.861Z,11.70
2018-07-05T22:17:59.328Z,11.77
2018-07-05T22:20:43.640Z,12.60
2018-07-05T22:23:27.940Z,12.03
2018-07-05T22:26:12.356Z,13.17
2018-07-05T22:28:56.620Z,13.10
2018-07-05T22:31:35.136Z,12.50
2018-07-05T22:34:13.756Z,13.73
2018-07-05T22:36:52.263Z,14.40
2018-07-05T22:39:31.484Z,13.03
2018-07-05T22:42:09.999Z,13.67
2018-07-05T22:44:48.605Z,12.63
2018-07-05T22:47:27.224Z,12.80
2018-07-05T22:50:05.879Z,13.00
2018-07-05T22:52:44.356Z,13.97
2018-07-05T22:55:22.893Z,12.50
2018-07-05T22:58:01.448Z,13.50
2018-07-05T23:00:40.072Z,13.23
2018-07-05T23:03:18.704Z,14.47
2018-07-05T23:05:57.186Z,13.67
2018-07-05T23:08:35.792Z,14.20
2018-07-05T23:11:14.344Z,13.50
2018-07-05T23:13:52.800Z,13.50
2018-07-05T23:16:31.228Z,13.60
2018-07-05T23:19:09.821Z,13.87
2018-07-05T23:21:48.439Z,13.43
2018-07-05T23:24:26.904Z,14.30
2018-07-05T23:27:05.589Z,13.50
2018-07-05T23:29:44.185Z,13.87
2018-07-05T23:32:22.765Z,15.13
2018-07-05T23:35:01.442Z,15.27
2018-07-05T23:37:40.088Z,13.80
2018-07-05T23:40:18.748Z,12.90
2018-07-05T23:42:57.334Z,12.77
2018-07-05T23:45:35.776Z,13.03
2018-07-05T23:48:14.382Z,12.57
2018-07-05T23:50:52.996Z,12.83
2018-07-05T23:53:31.598Z,12.73
2018-07-05T23:56:10.138Z,12.90
2018-07-05T23:58:48.758Z,12.37
